sensor_id;sensor_type;location;lat;lon;timestamp;P1;durP1;ratioP1;P2;durP2;ratioP2
44048;SDS011;29717;47.028;15.470;2023-02-23T00:00:51;24.37;;;18.70;;
44048;SDS011;29717;47.028;15.470;2023-02-23T00:03:18;25.33;;;19.93;;
44048;SDS011;29717;47.028;15.470;2023-02-23T00:05:46;29.27;;;20.80;;
44048;SDS011;29717;47.028;15.470;2023-02-23T00:08:13;29.20;;;20.93;;
44048;SDS011;29717;47.028;15.470;2023-02-23T00:10:40;28.23;;;20.90;;
44048;SDS011;29717;47.028;15.470;2023-02-23T00:13:08;25.70;;;18.60;;
44048;SDS011;29717;47.028;15.470;2023-02-23T00:15:35;24.63;;;18.80;;
44048;SDS011;29717;47.028;15.470;2023-02-23T00:18:02;26.77;;;19.73;;
44048;SDS011;29717;47.028;15.470;2023-02-23T00:20:30;26.37;;;19.17;;
44048;SDS011;29717;47.028;15.470;2023-02-23T00:22:58;25.37;;;18.87;;
44048;SDS011;29717;47.028;15.470;2023-02-23T00:25:25;25.70;;;18.23;;
44048;SDS011;29717;47.028;15.470;2023-02-23T00:27:55;24.33;;;18.27;;
44048;SDS011;29717;47.028;15.470;2023-02-23T00:30:22;26.47;;;18.33;;
44048;SDS011;29717;47.028;15.470;2023-02-23T00:32:50;26.47;;;18.53;;
44048;SDS011;29717;47.028;15.470;2023-02-23T00:35:18;24.80;;;19.03;;
44048;SDS011;29717;47.028;15.470;2023-02-23T00:37:45;23.97;;;18.60;;
44048;SDS011;29717;47.028;15.470;2023-02-23T00:40:14;23.53;;;18.17;;
44048;SDS011;29717;47.028;15.470;2023-02-23T00:42:42;27.10;;;19.53;;
44048;SDS011;29717;47.028;15.470;2023-02-23T00:45:10;27.30;;;19.17;;
44048;SDS011;29717;47.028;15.470;2023-02-23T00:47:37;25.80;;;18.33;;
44048;SDS011;29717;47.028;15.470;2023-02-23T00:50:04;21.07;;;16.40;;
44048;SDS011;29717;47.028;15.470;2023-02-23T00:52:31;26.80;;;18.57;;
44048;SDS011;29717;47.028;15.470;2023-02-23T00:54:58;24.93;;;19.00;;
44048;SDS011;29717;47.028;15.470;2023-02-23T00:57:26;26.20;;;19.20;;
44048;SDS011;29717;47.028;15.470;2023-02-23T00:59:53;23.47;;;17.53;;
44048;SDS011;29717;47.028;15.470;2023-02-23T01:02:21;24.13;;;18.43;;
44048;SDS011;29717;47.028;15.470;2023-02-23T01:04:48;23.07;;;17.30;;
44048;SDS011;29717;47.028;15.470;2023-02-23T01:07:14;25.33;;;18.33;;
44048;SDS011;29717;47.028;15.470;2023-02-23T01:09:41;23.53;;;17.07;;
44048;SDS011;29717;47.028;15.470;2023-02-23T01:12:08;24.30;;;17.13;;
44048;SDS011;29717;47.028;15.470;2023-02-23T01:14:36;23.00;;;17.60;;
44048;SDS011;29717;47.028;15.470;2023-02-23T01:17:03;22.57;;;17.63;;
44048;SDS011;29717;47.028;15.470;2023-02-23T01:19:30;24.60;;;17.87;;
44048;SDS011;29717;47.028;15.470;2023-02-23T01:21:59;23.77;;;17.57;;
44048;SDS011;29717;47.028;15.470;2023-02-23T01:24:26;26.23;;;17.27;;
44048;SDS011;29717;47.028;15.470;2023-02-23T01:26:53;24.33;;;17.73;;
44048;SDS011;29717;47.028;15.470;2023-02-23T01:29:20;22.83;;;16.97;;
44048;SDS011;29717;47.028;15.470;2023-02-23T01:31:48;25.53;;;17.57;;
44048;SDS011;29717;47.028;15.470;2023-02-23T01:34:17;24.33;;;17.87;;
44048;SDS011;29717;47.028;15.470;2023-02-23T01:36:46;26.07;;;18.23;;
44048;SDS011;29717;47.028;15.470;2023-02-23T01:39:13;23.93;;;17.57;;
44048;SDS011;29717;47.028;15.470;2023-02-23T01:41:40;23.07;;;16.63;;
44048;SDS011;29717;47.028;15.470;2023-02-23T01:44:57;30.40;;;19.13;;
44048;SDS011;29717;47.028;15.470;2023-02-23T01:46:57;24.83;;;17.83;;
44048;SDS011;29717;47.028;15.470;2023-02-23T01:49:24;23.50;;;17.00;;
44048;SDS011;29717;47.028;15.470;2023-02-23T01:51:53;21.90;;;16.50;;
44048;SDS011;29717;47.028;15.470;2023-02-23T01:54:21;21.87;;;17.33;;
44048;SDS011;29717;47.028;15.470;2023-02-23T01:56:52;24.73;;;18.10;;
44048;SDS011;29717;47.028;15.470;2023-02-23T01:59:22;25.03;;;17.17;;
44048;SDS011;29717;47.028;15.470;2023-02-23T02:01:52;24.80;;;17.03;;
44048;SDS011;29717;47.028;15.470;2023-02-23T02:04:21;26.03;;;18.93;;
44048;SDS011;29717;47.028;15.470;2023-02-23T02:06:50;24.13;;;17.50;;
44048;SDS011;29717;47.028;15.470;2023-02-23T02:09:18;27.63;;;17.97;;
44048;SDS011;29717;47.028;15.470;2023-02-23T02:11:49;24.77;;;17.53;;
44048;SDS011;29717;47.028;15.470;2023-02-23T02:14:19;23.40;;;17.83;;
44048;SDS011;29717;47.028;15.470;2023-02-23T02:16:56;24.93;;;16.97;;
44048;SDS011;29717;47.028;15.470;2023-02-23T02:22:23;24.37;;;17.40;;
44048;SDS011;29717;47.028;15.470;2023-02-23T02:25:03;26.10;;;17.67;;
44048;SDS011;29717;47.028;15.470;2023-02-23T02:27:41;24.30;;;17.50;;
44048;SDS011;29717;47.028;15.470;2023-02-23T02:30:17;25.77;;;17.50;;
44048;SDS011;29717;47.028;15.470;2023-02-23T02:32:58;23.07;;;17.87;;
44048;SDS011;29717;47.028;15.470;2023-02-23T02:35:35;24.90;;;18.27;;
44048;SDS011;29717;47.028;15.470;2023-02-23T02:38:14;29.60;;;18.63;;
44048;SDS011;29717;47.028;15.470;2023-02-23T02:40:44;23.03;;;17.27;;
44048;SDS011;29717;47.028;15.470;2023-02-23T02:43:21;29.00;;;20.17;;
44048;SDS011;29717;47.028;15.470;2023-02-23T02:45:49;26.00;;;17.87;;
44048;SDS011;29717;47.028;15.470;2023-02-23T02:48:19;25.10;;;18.00;;
44048;SDS011;29717;47.028;15.470;2023-02-23T02:50:51;23.73;;;17.33;;
44048;SDS011;29717;47.028;15.470;2023-02-23T02:53:22;27.87;;;17.93;;
44048;SDS011;29717;47.028;15.470;2023-02-23T02:55:50;29.50;;;17.93;;
44048;SDS011;29717;47.028;15.470;2023-02-23T02:58:20;27.63;;;18.53;;
44048;SDS011;29717;47.028;15.470;2023-02-23T03:00:49;24.57;;;18.07;;
44048;SDS011;29717;47.028;15.470;2023-02-23T03:03:34;23.47;;;18.17;;
44048;SDS011;29717;47.028;15.470;2023-02-23T03:06:20;28.53;;;18.23;;
44048;SDS011;29717;47.028;15.470;2023-02-23T03:09:10;24.73;;;17.67;;
44048;SDS011;29717;47.028;15.470;2023-02-23T03:12:05;25.37;;;17.47;;
44048;SDS011;29717;47.028;15.470;2023-02-23T03:14:51;23.93;;;18.43;;
44048;SDS011;29717;47.028;15.470;2023-02-23T03:17:41;28.63;;;20.03;;
44048;SDS011;29717;47.028;15.470;2023-02-23T03:20:28;28.40;;;19.80;;
44048;SDS011;29717;47.028;15.470;2023-02-23T03:23:18;28.00;;;19.17;;
44048;SDS011;29717;47.028;15.470;2023-02-23T03:26:05;28.23;;;19.40;;
44048;SDS011;29717;47.028;15.470;2023-02-23T03:28:54;29.23;;;20.47;;
44048;SDS011;29717;47.028;15.470;2023-02-23T03:31:43;30.63;;;20.20;;
44048;SDS011;29717;47.028;15.470;2023-02-23T03:34:30;27.37;;;20.00;;
44048;SDS011;29717;47.028;15.470;2023-02-23T03:37:17;27.03;;;20.03;;
44048;SDS011;29717;47.028;15.470;2023-02-23T03:40:05;28.47;;;19.83;;
44048;SDS011;29717;47.028;15.470;2023-02-23T03:42:52;29.97;;;21.20;;
44048;SDS011;29717;47.028;15.470;2023-02-23T03:45:39;31.83;;;20.63;;
44048;SDS011;29717;47.028;15.470;2023-02-23T03:48:23;28.67;;;20.17;;
44048;SDS011;29717;47.028;15.470;2023-02-23T03:51:09;29.10;;;20.53;;
44048;SDS011;29717;47.028;15.470;2023-02-23T03:53:56;26.67;;;20.50;;
44048;SDS011;29717;47.028;15.470;2023-02-23T03:56:43;28.53;;;20.73;;
44048;SDS011;29717;47.028;15.470;2023-02-23T03:59:31;31.13;;;20.30;;
44048;SDS011;29717;47.028;15.470;2023-02-23T04:02:17;26.67;;;19.17;;
44048;SDS011;29717;47.028;15.470;2023-02-23T04:05:04;28.53;;;19.67;;
44048;SDS011;29717;47.028;15.470;2023-02-23T04:07:51;31.40;;;19.77;;
44048;SDS011;29717;47.028;15.470;2023-02-23T04:10:38;27.63;;;19.27;;
44048;SDS011;29717;47.028;15.470;2023-02-23T04:13:24;29.00;;;19.73;;
44048;SDS011;29717;47.028;15.470;2023-02-23T04:15:54;29.97;;;20.67;;
44048;SDS011;29717;47.028;15.470;2023-02-23T04:18:21;32.53;;;19.97;;
44048;SDS011;29717;47.028;15.470;2023-02-23T04:20:49;27.87;;;19.97;;
44048;SDS011;29717;47.028;15.470;2023-02-23T04:23:15;28.77;;;20.47;;
44048;SDS011;29717;47.028;15.470;2023-02-23T04:25:42;31.20;;;21.20;;
44048;SDS011;29717;47.028;15.470;2023-02-23T04:28:09;31.43;;;20.63;;
44048;SDS011;29717;47.028;15.470;2023-02-23T04:30:36;32.47;;;21.40;;
44048;SDS011;29717;47.028;15.470;2023-02-23T04:33:04;28.53;;;20.40;;
44048;SDS011;29717;47.028;15.470;2023-02-23T04:35:31;28.20;;;20.57;;
44048;SDS011;29717;47.028;15.470;2023-02-23T04:37:58;30.10;;;20.97;;
44048;SDS011;29717;47.028;15.470;2023-02-23T04:40:24;28.70;;;20.20;;
44048;SDS011;29717;47.028;15.470;2023-02-23T04:42:51;31.43;;;21.83;;
44048;SDS011;29717;47.028;15.470;2023-02-23T04:45:18;26.53;;;19.47;;
44048;SDS011;29717;47.028;15.470;2023-02-23T04:47:46;33.40;;;22.03;;
44048;SDS011;29717;47.028;15.470;2023-02-23T04:50:14;31.63;;;21.47;;
44048;SDS011;29717;47.028;15.470;2023-02-23T04:52:41;32.33;;;21.80;;
44048;SDS011;29717;47.028;15.470;2023-02-23T04:55:11;29.93;;;21.93;;
44048;SDS011;29717;47.028;15.470;2023-02-23T04:57:40;35.10;;;21.57;;
44048;SDS011;29717;47.028;15.470;2023-02-23T05:00:08;29.20;;;21.60;;
44048;SDS011;29717;47.028;15.470;2023-02-23T05:02:35;31.77;;;22.40;;
44048;SDS011;29717;47.028;15.470;2023-02-23T05:05:01;27.20;;;20.57;;
44048;SDS011;29717;47.028;15.470;2023-02-23T05:07:30;29.30;;;21.77;;
44048;SDS011;29717;47.028;15.470;2023-02-23T05:09:57;26.23;;;18.90;;
44048;SDS011;29717;47.028;15.470;2023-02-23T05:12:23;30.17;;;19.17;;
44048;SDS011;29717;47.028;15.470;2023-02-23T05:14:50;28.33;;;19.93;;
44048;SDS011;29717;47.028;15.470;2023-02-23T05:17:17;27.50;;;19.30;;
44048;SDS011;29717;47.028;15.470;2023-02-23T05:19:44;30.47;;;19.77;;
44048;SDS011;29717;47.028;15.470;2023-02-23T05:22:10;28.97;;;20.57;;
44048;SDS011;29717;47.028;15.470;2023-02-23T05:24:40;28.70;;;19.60;;
44048;SDS011;29717;47.028;15.470;2023-02-23T05:27:07;27.40;;;19.03;;
44048;SDS011;29717;47.028;15.470;2023-02-23T05:29:34;27.07;;;18.87;;
44048;SDS011;29717;47.028;15.470;2023-02-23T05:32:01;35.70;;;20.47;;
44048;SDS011;29717;47.028;15.470;2023-02-23T05:34:28;26.63;;;19.30;;
44048;SDS011;29717;47.028;15.470;2023-02-23T05:36:54;34.20;;;20.63;;
44048;SDS011;29717;47.028;15.470;2023-02-23T05:39:21;32.67;;;20.77;;
44048;SDS011;29717;47.028;15.470;2023-02-23T05:41:49;27.13;;;20.70;;
44048;SDS011;29717;47.028;15.470;2023-02-23T05:44:16;29.03;;;22.17;;
44048;SDS011;29717;47.028;15.470;2023-02-23T05:46:44;26.47;;;19.47;;
44048;SDS011;29717;47.028;15.470;2023-02-23T05:49:10;25.20;;;19.20;;
44048;SDS011;29717;47.028;15.470;2023-02-23T05:51:37;30.67;;;19.60;;
44048;SDS011;29717;47.028;15.470;2023-02-23T05:54:04;28.70;;;20.40;;
44048;SDS011;29717;47.028;15.470;2023-02-23T05:56:31;26.93;;;19.53;;
44048;SDS011;29717;47.028;15.470;2023-02-23T05:58:59;34.77;;;20.43;;
44048;SDS011;29717;47.028;15.470;2023-02-23T06:01:29;26.37;;;19.33;;
44048;SDS011;29717;47.028;15.470;2023-02-23T06:03:56;31.43;;;21.90;;
44048;SDS011;29717;47.028;15.470;2023-02-23T06:06:23;32.10;;;20.80;;
44048;SDS011;29717;47.028;15.470;2023-02-23T06:08:51;44.07;;;24.23;;
44048;SDS011;29717;47.028;15.470;2023-02-23T06:11:18;34.80;;;21.63;;
44048;SDS011;29717;47.028;15.470;2023-02-23T06:13:44;33.63;;;20.47;;
44048;SDS011;29717;47.028;15.470;2023-02-23T06:16:13;37.17;;;22.57;;
44048;SDS011;29717;47.028;15.470;2023-02-23T06:18:40;38.73;;;22.60;;
44048;SDS011;29717;47.028;15.470;2023-02-23T06:21:07;34.37;;;22.77;;
44048;SDS011;29717;47.028;15.470;2023-02-23T06:23:34;31.73;;;22.30;;
44048;SDS011;29717;47.028;15.470;2023-02-23T06:26:00;34.03;;;23.20;;
44048;SDS011;29717;47.028;15.470;2023-02-23T06:28:27;30.53;;;23.23;;
44048;SDS011;29717;47.028;15.470;2023-02-23T06:30:55;33.30;;;22.80;;
44048;SDS011;29717;47.028;15.470;2023-02-23T06:33:23;32.03;;;22.20;;
44048;SDS011;29717;47.028;15.470;2023-02-23T06:35:51;34.37;;;22.77;;
44048;SDS011;29717;47.028;15.470;2023-02-23T06:38:19;42.93;;;28.63;;
44048;SDS011;29717;47.028;15.470;2023-02-23T06:40:45;45.50;;;28.53;;
44048;SDS011;29717;47.028;15.470;2023-02-23T06:43:12;37.50;;;26.50;;
44048;SDS011;29717;47.028;15.470;2023-02-23T06:45:39;41.80;;;28.53;;
44048;SDS011;29717;47.028;15.470;2023-02-23T06:48:06;47.63;;;29.27;;
44048;SDS011;29717;47.028;15.470;2023-02-23T06:50:34;42.13;;;27.93;;
44048;SDS011;29717;47.028;15.470;2023-02-23T06:53:01;40.60;;;28.37;;
44048;SDS011;29717;47.028;15.470;2023-02-23T06:55:28;43.07;;;28.27;;
44048;SDS011;29717;47.028;15.470;2023-02-23T06:57:54;38.17;;;28.27;;
44048;SDS011;29717;47.028;15.470;2023-02-23T07:00:21;36.87;;;27.03;;
44048;SDS011;29717;47.028;15.470;2023-02-23T07:02:48;38.23;;;26.70;;
44048;SDS011;29717;47.028;15.470;2023-02-23T07:05:15;36.93;;;26.33;;
44048;SDS011;29717;47.028;15.470;2023-02-23T07:07:43;35.23;;;25.23;;
44048;SDS011;29717;47.028;15.470;2023-02-23T07:10:11;43.50;;;23.37;;
44048;SDS011;29717;47.028;15.470;2023-02-23T07:12:38;39.10;;;24.57;;
44048;SDS011;29717;47.028;15.470;2023-02-23T07:15:05;34.50;;;24.73;;
44048;SDS011;29717;47.028;15.470;2023-02-23T07:17:33;35.03;;;24.07;;
44048;SDS011;29717;47.028;15.470;2023-02-23T07:20:00;33.97;;;23.70;;
44048;SDS011;29717;47.028;15.470;2023-02-23T07:22:27;36.67;;;24.37;;
44048;SDS011;29717;47.028;15.470;2023-02-23T07:24:56;30.27;;;22.80;;
44048;SDS011;29717;47.028;15.470;2023-02-23T07:27:22;31.73;;;23.93;;
44048;SDS011;29717;47.028;15.470;2023-02-23T07:29:49;30.53;;;22.33;;
44048;SDS011;29717;47.028;15.470;2023-02-23T07:32:16;31.03;;;22.43;;
44048;SDS011;29717;47.028;15.470;2023-02-23T07:34:43;32.67;;;24.43;;
44048;SDS011;29717;47.028;15.470;2023-02-23T07:37:10;31.80;;;24.20;;
44048;SDS011;29717;47.028;15.470;2023-02-23T07:39:37;33.13;;;24.40;;
44048;SDS011;29717;47.028;15.470;2023-02-23T07:42:05;36.50;;;23.27;;
44048;SDS011;29717;47.028;15.470;2023-02-23T07:44:32;40.53;;;23.53;;
44048;SDS011;29717;47.028;15.470;2023-02-23T07:46:58;37.20;;;23.50;;
44048;SDS011;29717;47.028;15.470;2023-02-23T07:49:25;34.27;;;24.00;;
44048;SDS011;29717;47.028;15.470;2023-02-23T07:51:52;32.20;;;23.30;;
44048;SDS011;29717;47.028;15.470;2023-02-23T07:54:19;30.77;;;23.17;;
44048;SDS011;29717;47.028;15.470;2023-02-23T07:56:46;33.07;;;22.63;;
44048;SDS011;29717;47.028;15.470;2023-02-23T07:59:14;33.87;;;23.73;;
44048;SDS011;29717;47.028;15.470;2023-02-23T08:01:41;33.97;;;22.83;;
44048;SDS011;29717;47.028;15.470;2023-02-23T08:04:08;31.27;;;21.57;;
44048;SDS011;29717;47.028;15.470;2023-02-23T08:06:36;34.30;;;22.67;;
44048;SDS011;29717;47.028;15.470;2023-02-23T08:09:02;31.00;;;21.67;;
44048;SDS011;29717;47.028;15.470;2023-02-23T08:11:29;29.33;;;20.60;;
44048;SDS011;29717;47.028;15.470;2023-02-23T08:13:56;30.57;;;21.70;;
44048;SDS011;29717;47.028;15.470;2023-02-23T08:16:27;29.17;;;21.00;;
44048;SDS011;29717;47.028;15.470;2023-02-23T08:18:55;30.60;;;21.97;;
44048;SDS011;29717;47.028;15.470;2023-02-23T08:21:23;31.60;;;21.47;;
44048;SDS011;29717;47.028;15.470;2023-02-23T08:23:50;31.10;;;21.40;;
44048;SDS011;29717;47.028;15.470;2023-02-23T08:26:17;34.40;;;22.10;;
44048;SDS011;29717;47.028;15.470;2023-02-23T08:28:44;28.97;;;22.07;;
44048;SDS011;29717;47.028;15.470;2023-02-23T08:31:11;31.40;;;22.27;;
44048;SDS011;29717;47.028;15.470;2023-02-23T08:33:39;29.37;;;21.70;;
44048;SDS011;29717;47.028;15.470;2023-02-23T08:36:06;33.57;;;22.90;;
44048;SDS011;29717;47.028;15.470;2023-02-23T08:38:33;36.97;;;22.43;;
44048;SDS011;29717;47.028;15.470;2023-02-23T08:41:02;34.27;;;21.30;;
44048;SDS011;29717;47.028;15.470;2023-02-23T08:43:28;30.07;;;21.40;;
44048;SDS011;29717;47.028;15.470;2023-02-23T08:45:55;34.67;;;20.37;;
44048;SDS011;29717;47.028;15.470;2023-02-23T08:48:22;32.40;;;20.33;;
44048;SDS011;29717;47.028;15.470;2023-02-23T08:50:55;28.93;;;20.50;;
44048;SDS011;29717;47.028;15.470;2023-02-23T08:53:22;32.33;;;20.50;;
44048;SDS011;29717;47.028;15.470;2023-02-23T08:55:53;27.60;;;19.77;;
44048;SDS011;29717;47.028;15.470;2023-02-23T08:58:20;37.50;;;22.08;;
44048;SDS011;29717;47.028;15.470;2023-02-23T09:00:47;33.77;;;21.33;;
44048;SDS011;29717;47.028;15.470;2023-02-23T09:03:14;30.40;;;19.30;;
44048;SDS011;29717;47.028;15.470;2023-02-23T09:05:41;31.30;;;21.60;;
44048;SDS011;29717;47.028;15.470;2023-02-23T09:08:10;29.73;;;22.00;;
44048;SDS011;29717;47.028;15.470;2023-02-23T09:10:36;35.87;;;22.33;;
44048;SDS011;29717;47.028;15.470;2023-02-23T09:13:03;37.00;;;23.07;;
44048;SDS011;29717;47.028;15.470;2023-02-23T09:15:30;28.20;;;21.97;;
44048;SDS011;29717;47.028;15.470;2023-02-23T09:17:58;38.93;;;22.57;;
44048;SDS011;29717;47.028;15.470;2023-02-23T09:20:25;38.90;;;22.67;;
44048;SDS011;29717;47.028;15.470;2023-02-23T09:22:52;44.63;;;22.70;;
44048;SDS011;29717;47.028;15.470;2023-02-23T09:25:22;40.83;;;22.43;;
44048;SDS011;29717;47.028;15.470;2023-02-23T09:27:49;32.37;;;21.30;;
44048;SDS011;29717;47.028;15.470;2023-02-23T09:30:17;34.10;;;22.47;;
44048;SDS011;29717;47.028;15.470;2023-02-23T09:32:45;34.63;;;21.73;;
44048;SDS011;29717;47.028;15.470;2023-02-23T09:35:12;37.73;;;21.83;;
44048;SDS011;29717;47.028;15.470;2023-02-23T09:37:42;35.30;;;22.07;;
44048;SDS011;29717;47.028;15.470;2023-02-23T09:40:13;37.43;;;20.70;;
44048;SDS011;29717;47.028;15.470;2023-02-23T09:42:42;33.23;;;22.80;;
44048;SDS011;29717;47.028;15.470;2023-02-23T09:45:16;39.67;;;23.00;;
44048;SDS011;29717;47.028;15.470;2023-02-23T09:47:46;31.13;;;21.50;;
44048;SDS011;29717;47.028;15.470;2023-02-23T09:50:17;33.13;;;22.47;;
44048;SDS011;29717;47.028;15.470;2023-02-23T09:52:48;31.83;;;23.20;;
44048;SDS011;29717;47.028;15.470;2023-02-23T09:55:15;33.13;;;21.80;;
44048;SDS011;29717;47.028;15.470;2023-02-23T09:57:46;35.43;;;22.90;;
44048;SDS011;29717;47.028;15.470;2023-02-23T10:00:15;32.70;;;22.80;;
44048;SDS011;29717;47.028;15.470;2023-02-23T10:02:48;35.47;;;21.50;;
44048;SDS011;29717;47.028;15.470;2023-02-23T10:05:17;32.43;;;22.13;;
44048;SDS011;29717;47.028;15.470;2023-02-23T10:07:45;30.27;;;21.60;;
44048;SDS011;29717;47.028;15.470;2023-02-23T10:10:19;31.10;;;21.60;;
44048;SDS011;29717;47.028;15.470;2023-02-23T10:12:53;28.03;;;21.03;;
44048;SDS011;29717;47.028;15.470;2023-02-23T10:15:26;34.03;;;20.93;;
44048;SDS011;29717;47.028;15.470;2023-02-23T10:17:55;38.37;;;23.57;;
44048;SDS011;29717;47.028;15.470;2023-02-23T10:20:29;36.60;;;23.23;;
44048;SDS011;29717;47.028;15.470;2023-02-23T10:23:01;33.33;;;22.60;;
44048;SDS011;29717;47.028;15.470;2023-02-23T10:25:30;35.37;;;24.73;;
44048;SDS011;29717;47.028;15.470;2023-02-23T10:28:01;38.00;;;22.20;;
44048;SDS011;29717;47.028;15.470;2023-02-23T10:30:29;31.80;;;22.00;;
44048;SDS011;29717;47.028;15.470;2023-02-23T10:32:58;38.43;;;23.23;;
44048;SDS011;29717;47.028;15.470;2023-02-23T10:35:26;33.33;;;21.35;;
44048;SDS011;29717;47.028;15.470;2023-02-23T10:37:54;34.80;;;22.67;;
44048;SDS011;29717;47.028;15.470;2023-02-23T10:40:22;33.53;;;21.52;;
44048;SDS011;29717;47.028;15.470;2023-02-23T10:42:49;31.77;;;22.08;;
44048;SDS011;29717;47.028;15.470;2023-02-23T10:45:18;32.13;;;22.67;;
44048;SDS011;29717;47.028;15.470;2023-02-23T10:47:51;27.52;;;21.85;;
44048;SDS011;29717;47.028;15.470;2023-02-23T10:50:19;35.00;;;21.92;;
44048;SDS011;29717;47.028;15.470;2023-02-23T10:52:51;32.63;;;21.95;;
44048;SDS011;29717;47.028;15.470;2023-02-23T10:55:22;33.83;;;21.67;;
44048;SDS011;29717;47.028;15.470;2023-02-23T10:57:49;33.47;;;21.25;;
44048;SDS011;29717;47.028;15.470;2023-02-23T11:00:28;34.70;;;23.10;;
44048;SDS011;29717;47.028;15.470;2023-02-23T11:02:58;27.38;;;22.00;;
44048;SDS011;29717;47.028;15.470;2023-02-23T11:05:35;29.77;;;22.65;;
44048;SDS011;29717;47.028;15.470;2023-02-23T11:08:17;31.98;;;21.30;;
44048;SDS011;29717;47.028;15.470;2023-02-23T11:10:53;31.15;;;22.58;;
44048;SDS011;29717;47.028;15.470;2023-02-23T11:13:20;31.20;;;21.50;;
44048;SDS011;29717;47.028;15.470;2023-02-23T11:15:50;29.10;;;20.98;;
44048;SDS011;29717;47.028;15.470;2023-02-23T11:18:23;32.47;;;21.20;;
44048;SDS011;29717;47.028;15.470;2023-02-23T11:20:51;26.80;;;20.80;;
44048;SDS011;29717;47.028;15.470;2023-02-23T11:23:20;29.95;;;21.50;;
44048;SDS011;29717;47.028;15.470;2023-02-23T11:25:49;27.80;;;21.60;;
44048;SDS011;29717;47.028;15.470;2023-02-23T11:28:20;31.65;;;21.58;;
44048;SDS011;29717;47.028;15.470;2023-02-23T11:30:48;30.98;;;20.88;;
44048;SDS011;29717;47.028;15.470;2023-02-23T11:33:17;27.92;;;21.30;;
44048;SDS011;29717;47.028;15.470;2023-02-23T11:35:45;26.55;;;20.73;;
44048;SDS011;29717;47.028;15.470;2023-02-23T11:38:15;26.40;;;21.23;;
44048;SDS011;29717;47.028;15.470;2023-02-23T11:40:56;31.00;;;21.77;;
44048;SDS011;29717;47.028;15.470;2023-02-23T11:43:24;28.58;;;21.98;;
44048;SDS011;29717;47.028;15.470;2023-02-23T11:45:51;30.05;;;21.42;;
44048;SDS011;29717;47.028;15.470;2023-02-23T11:48:24;28.20;;;20.60;;
44048;SDS011;29717;47.028;15.470;2023-02-23T11:50:52;27.73;;;21.52;;
44048;SDS011;29717;47.028;15.470;2023-02-23T11:53:20;28.98;;;22.73;;
44048;SDS011;29717;47.028;15.470;2023-02-23T11:55:52;30.95;;;22.33;;
44048;SDS011;29717;47.028;15.470;2023-02-23T11:58:22;34.55;;;22.02;;
44048;SDS011;29717;47.028;15.470;2023-02-23T12:00:56;31.42;;;22.27;;
44048;SDS011;29717;47.028;15.470;2023-02-23T12:03:25;30.67;;;23.45;;
44048;SDS011;29717;47.028;15.470;2023-02-23T12:05:53;31.90;;;23.90;;
44048;SDS011;29717;47.028;15.470;2023-02-23T12:08:26;30.90;;;22.38;;
44048;SDS011;29717;47.028;15.470;2023-02-23T12:10:57;32.78;;;24.17;;
44048;SDS011;29717;47.028;15.470;2023-02-23T12:13:26;33.22;;;24.80;;
44048;SDS011;29717;47.028;15.470;2023-02-23T12:15:56;34.83;;;24.88;;
44048;SDS011;29717;47.028;15.470;2023-02-23T12:21:13;39.78;;;26.42;;
44048;SDS011;29717;47.028;15.470;2023-02-23T12:23:40;31.88;;;26.23;;
44048;SDS011;29717;47.028;15.470;2023-02-23T12:26:10;34.92;;;25.90;;
44048;SDS011;29717;47.028;15.470;2023-02-23T12:28:39;34.83;;;25.35;;
44048;SDS011;29717;47.028;15.470;2023-02-23T12:31:20;38.58;;;25.55;;
44048;SDS011;29717;47.028;15.470;2023-02-23T12:33:49;37.42;;;26.05;;
44048;SDS011;29717;47.028;15.470;2023-02-23T12:36:22;31.10;;;24.85;;
44048;SDS011;29717;47.028;15.470;2023-02-23T12:38:53;34.28;;;25.30;;
44048;SDS011;29717;47.028;15.470;2023-02-23T12:41:25;35.10;;;26.55;;
44048;SDS011;29717;47.028;15.470;2023-02-23T12:43:54;35.20;;;26.27;;
44048;SDS011;29717;47.028;15.470;2023-02-23T12:46:23;33.40;;;26.00;;
44048;SDS011;29717;47.028;15.470;2023-02-23T12:48:54;38.15;;;26.90;;
44048;SDS011;29717;47.028;15.470;2023-02-23T12:51:27;35.00;;;26.90;;
44048;SDS011;29717;47.028;15.470;2023-02-23T12:53:55;35.97;;;25.38;;
44048;SDS011;29717;47.028;15.470;2023-02-23T12:59:14;33.80;;;24.52;;
44048;SDS011;29717;47.028;15.470;2023-02-23T13:01:42;32.85;;;25.35;;
44048;SDS011;29717;47.028;15.470;2023-02-23T13:04:17;31.83;;;24.75;;
44048;SDS011;29717;47.028;15.470;2023-02-23T13:06:53;35.78;;;24.70;;
44048;SDS011;29717;47.028;15.470;2023-02-23T13:09:32;34.95;;;25.90;;
44048;SDS011;29717;47.028;15.470;2023-02-23T13:12:09;35.70;;;25.35;;
44048;SDS011;29717;47.028;15.470;2023-02-23T13:14:41;34.70;;;25.65;;
44048;SDS011;29717;47.028;15.470;2023-02-23T13:17:15;32.72;;;24.65;;
44048;SDS011;29717;47.028;15.470;2023-02-23T13:19:50;36.47;;;25.92;;
44048;SDS011;29717;47.028;15.470;2023-02-23T13:22:23;32.65;;;24.52;;
44048;SDS011;29717;47.028;15.470;2023-02-23T13:24:52;33.55;;;25.33;;
44048;SDS011;29717;47.028;15.470;2023-02-23T13:27:22;39.63;;;25.83;;
44048;SDS011;29717;47.028;15.470;2023-02-23T13:29:52;34.50;;;24.90;;
44048;SDS011;29717;47.028;15.470;2023-02-23T13:32:20;30.35;;;25.05;;
44048;SDS011;29717;47.028;15.470;2023-02-23T13:34:49;32.85;;;24.92;;
44048;SDS011;29717;47.028;15.470;2023-02-23T13:37:18;32.35;;;25.48;;
44048;SDS011;29717;47.028;15.470;2023-02-23T13:39:51;31.77;;;24.58;;
44048;SDS011;29717;47.028;15.470;2023-02-23T13:42:24;34.42;;;24.75;;
44048;SDS011;29717;47.028;15.470;2023-02-23T13:44:54;33.30;;;25.23;;
44048;SDS011;29717;47.028;15.470;2023-02-23T13:47:28;34.60;;;24.58;;
44048;SDS011;29717;47.028;15.470;2023-02-23T13:49:58;33.95;;;25.98;;
44048;SDS011;29717;47.028;15.470;2023-02-23T13:52:29;38.35;;;26.08;;
44048;SDS011;29717;47.028;15.470;2023-02-23T13:54:59;33.33;;;25.55;;
44048;SDS011;29717;47.028;15.470;2023-02-23T13:57:28;36.45;;;25.38;;
44048;SDS011;29717;47.028;15.470;2023-02-23T13:59:56;37.95;;;25.45;;
44048;SDS011;29717;47.028;15.470;2023-02-23T14:02:34;33.92;;;25.83;;
44048;SDS011;29717;47.028;15.470;2023-02-23T14:05:02;32.90;;;25.77;;
44048;SDS011;29717;47.028;15.470;2023-02-23T14:07:30;31.33;;;24.92;;
44048;SDS011;29717;47.028;15.470;2023-02-23T14:10:00;34.40;;;24.23;;
44048;SDS011;29717;47.028;15.470;2023-02-23T14:12:32;30.75;;;24.83;;
44048;SDS011;29717;47.028;15.470;2023-02-23T14:17:40;32.42;;;25.73;;
44048;SDS011;29717;47.028;15.470;2023-02-23T14:20:13;39.08;;;26.27;;
44048;SDS011;29717;47.028;15.470;2023-02-23T14:25:44;38.85;;;27.15;;
44048;SDS011;29717;47.028;15.470;2023-02-23T14:28:21;31.25;;;23.67;;
44048;SDS011;29717;47.028;15.470;2023-02-23T14:30:49;34.90;;;24.15;;
44048;SDS011;29717;47.028;15.470;2023-02-23T14:33:34;32.65;;;25.00;;
44048;SDS011;29717;47.028;15.470;2023-02-23T14:36:01;35.70;;;24.38;;
44048;SDS011;29717;47.028;15.470;2023-02-23T14:38:31;37.40;;;25.00;;
44048;SDS011;29717;47.028;15.470;2023-02-23T14:41:00;31.48;;;23.90;;